createdAt,value
2022-10-25T04:30:36.424Z,0.00
2022-10-25T04:31:33.044Z,0.00
2022-10-25T04:32:32.043Z,0.00
2022-10-25T04:33:32.014Z,0.00
2022-10-25T04:34:32.018Z,0.00
2022-10-25T04:35:32.024Z,0.00
2022-10-25T04:36:31.996Z,0.00
2022-10-25T04:37:31.991Z,0.00
2022-10-25T04:38:31.989Z,0.00
2022-10-25T04:39:32.045Z,0.00
2022-10-25T04:40:31.948Z,0.00
2022-10-25T04:41:31.932Z,0.00
2022-10-25T04:42:32.011Z,0.00
2022-10-25T04:43:31.904Z,0.00
2022-10-25T04:44:31.949Z,0.00
2022-10-25T04:45:31.891Z,0.00
2022-10-25T04:46:31.891Z,0.00
2022-10-25T04:47:31.929Z,0.00
2022-10-25T04:48:31.873Z,0.00
2022-10-25T04:49:31.853Z,0.00
2022-10-25T04:50:31.853Z,0.00
2022-10-25T04:51:31.817Z,0.00
2022-10-25T04:52:31.825Z,0.00
2022-10-25T04:53:31.872Z,0.00
2022-10-25T04:54:31.806Z,0.00
2022-10-25T04:55:31.779Z,0.00
2022-10-25T04:56:31.766Z,0.00
2022-10-25T04:57:31.755Z,0.00
2022-10-25T04:58:31.783Z,0.00
2022-10-25T04:59:31.799Z,0.00
2022-10-25T05:00:31.743Z,0.00
2022-10-25T05:01:31.824Z,0.00
2022-10-25T05:02:31.805Z,0.00
2022-10-25T05:03:31.699Z,0.00
2022-10-25T05:04:31.680Z,0.00
2022-10-25T05:05:31.768Z,0.00
2022-10-25T05:06:31.661Z,0.00
2022-10-25T05:07:31.653Z,0.00
2022-10-25T05:08:31.654Z,0.00
2022-10-25T05:09:31.623Z,0.00
2022-10-25T05:10:31.616Z,0.00
2022-10-25T05:11:31.701Z,0.00
2022-10-25T05:12:31.594Z,0.00
2022-10-25T05:13:31.587Z,0.00
2022-10-25T05:14:31.592Z,0.00
2022-10-25T05:15:31.569Z,0.00
2022-10-25T05:16:31.546Z,0.00
2022-10-25T05:17:31.596Z,0.00
2022-10-25T05:18:31.559Z,0.00
2022-10-25T05:19:31.509Z,0.00
2022-10-25T05:20:31.507Z,0.00
2022-10-25T05:21:31.635Z,0.00
2022-10-25T05:22:31.476Z,0.00
2022-10-25T05:23:31.514Z,0.00
2022-10-25T05:24:31.486Z,0.00
2022-10-25T05:25:31.453Z,0.00
2022-10-25T05:26:31.448Z,0.00
2022-10-25T05:27:31.436Z,0.00
2022-10-25T05:28:31.413Z,0.00
2022-10-25T05:29:31.445Z,0.00
2022-10-25T05:30:31.411Z,0.00
2022-10-25T05:31:31.406Z,0.00
2022-10-25T05:32:31.373Z,0.00
2022-10-25T05:33:31.363Z,0.00
2022-10-25T05:34:31.364Z,0.00
2022-10-25T05:35:31.395Z,0.00
2022-10-25T05:36:31.330Z,0.00
2022-10-25T05:37:31.327Z,0.00
2022-10-25T05:38:34.286Z,0.00
2022-10-25T05:39:32.315Z,0.00
2022-10-25T05:40:31.273Z,0.00
2022-10-25T05:41:34.611Z,0.00
2022-10-25T05:42:32.253Z,0.00
2022-10-25T05:43:31.239Z,0.00
2022-10-25T05:44:31.248Z,0.00
2022-10-25T05:45:31.227Z,0.00
2022-10-25T05:46:31.217Z,0.00
2022-10-25T05:47:31.259Z,0.00
2022-10-25T05:48:31.208Z,0.00
2022-10-25T05:49:31.201Z,0.00
2022-10-25T05:50:31.247Z,0.00
2022-10-25T05:51:35.698Z,0.00
2022-10-25T05:52:31.162Z,0.00
2022-10-25T05:53:31.147Z,0.00
2022-10-25T05:54:31.126Z,0.00
2022-10-25T05:55:31.127Z,0.00
2022-10-25T05:56:31.095Z,0.00
2022-10-25T05:57:31.097Z,0.00
2022-10-25T05:58:31.117Z,0.00
2022-10-25T05:59:31.091Z,0.00
2022-10-25T06:00:31.169Z,0.00
2022-10-25T06:01:31.149Z,0.00
2022-10-25T06:02:31.231Z,0.00
2022-10-25T06:03:31.021Z,0.00
2022-10-25T06:04:31.020Z,0.00
2022-10-25T06:05:31.003Z,0.00
2022-10-25T06:06:31.026Z,0.00
2022-10-25T06:07:30.995Z,0.00
2022-10-25T06:08:30.968Z,0.00
2022-10-25T06:09:30.970Z,0.00
2022-10-25T06:10:30.952Z,0.00
2022-10-25T06:11:30.943Z,0.00
2022-10-25T06:12:30.942Z,0.00
2022-10-25T06:13:30.951Z,0.00
2022-10-25T06:14:30.907Z,0.00
2022-10-25T06:15:30.969Z,0.00
2022-10-25T06:16:30.917Z,0.00
2022-10-25T06:17:30.901Z,0.00
2022-10-25T06:18:30.941Z,0.00
2022-10-25T06:19:30.857Z,0.00
2022-10-25T06:20:30.964Z,0.00
2022-10-25T06:21:30.839Z,0.00
2022-10-25T06:22:30.863Z,0.00
2022-10-25T06:23:30.902Z,0.00
2022-10-25T06:24:30.806Z,0.00
2022-10-25T06:25:30.824Z,0.00
2022-10-25T06:26:30.783Z,0.00
2022-10-25T06:27:30.801Z,0.00
2022-10-25T06:28:30.763Z,0.00
2022-10-25T06:29:30.859Z,0.00
2022-10-25T06:31:30.772Z,0.00
2022-10-25T06:32:30.718Z,0.00
2022-10-25T06:33:30.704Z,0.00
2022-10-25T06:34:30.735Z,0.00
2022-10-25T06:35:30.718Z,0.00
2022-10-25T06:36:30.696Z,0.00
2022-10-25T06:37:30.729Z,0.00
2022-10-25T06:38:30.689Z,0.00
2022-10-25T06:39:30.650Z,0.00
2022-10-25T06:40:30.639Z,0.00
2022-10-25T06:41:30.712Z,0.00
2022-10-25T06:42:30.617Z,0.00
2022-10-25T06:43:30.612Z,0.00
2022-10-25T06:44:30.593Z,0.00
2022-10-25T06:45:30.590Z,0.00
2022-10-25T06:46:30.593Z,0.00
2022-10-25T06:47:30.616Z,0.00
2022-10-25T06:48:31.049Z,0.00
2022-10-25T06:49:30.537Z,0.00
2022-10-25T06:50:30.535Z,0.00
2022-10-25T06:51:30.535Z,0.00
2022-10-25T06:52:30.526Z,0.00
2022-10-25T06:53:30.535Z,0.00
2022-10-25T06:54:30.531Z,0.00
2022-10-25T06:55:30.483Z,0.00
2022-10-25T06:56:30.465Z,0.00
2022-10-25T06:57:30.464Z,0.00
2022-10-25T06:58:30.451Z,0.00
2022-10-25T06:59:30.472Z,0.00
2022-10-25T07:00:30.460Z,0.00
2022-10-25T07:01:30.542Z,0.00
2022-10-25T07:02:30.592Z,0.00
2022-10-25T07:03:30.396Z,0.00
2022-10-25T07:04:30.401Z,0.00
2022-10-25T07:05:30.407Z,0.00
2022-10-25T07:07:30.348Z,0.00
2022-10-25T07:08:30.340Z,0.00
2022-10-25T07:09:30.344Z,0.00
2022-10-25T07:10:30.338Z,0.00
2022-10-25T07:11:30.351Z,0.00
2022-10-25T07:12:30.308Z,5.62
2022-10-25T07:13:30.305Z,5.62
2022-10-25T07:14:30.275Z,11.25
2022-10-25T07:15:30.284Z,16.88
2022-10-25T07:16:30.252Z,16.88
2022-10-25T07:17:30.310Z,16.88
2022-10-25T07:18:30.305Z,16.88
2022-10-25T07:19:30.225Z,22.50
2022-10-25T07:20:30.212Z,22.50
2022-10-25T07:21:30.202Z,22.50
2022-10-25T07:22:30.192Z,28.12
2022-10-25T07:23:30.215Z,22.50
2022-10-25T07:24:30.182Z,28.12
2022-10-25T07:25:30.156Z,28.12
2022-10-25T07:26:30.994Z,33.75
2022-10-25T07:27:30.130Z,33.75
2022-10-25T07:28:30.129Z,33.75
2022-10-25T07:29:30.165Z,33.75
2022-10-25T07:30:30.120Z,33.75
2022-10-25T07:31:30.094Z,33.75
2022-10-25T07:32:30.100Z,33.75
2022-10-25T07:33:30.482Z,28.12
2022-10-25T07:34:30.089Z,33.75
2022-10-25T07:35:35.470Z,39.38
2022-10-25T07:36:31.050Z,33.75
2022-10-25T07:37:30.031Z,33.75
2022-10-25T07:38:30.024Z,28.12
2022-10-25T07:39:30.021Z,28.12
2022-10-25T07:40:29.988Z,39.38
2022-10-25T07:41:29.991Z,39.38
2022-10-25T07:42:30.013Z,39.38
2022-10-25T07:43:29.960Z,39.38
2022-10-25T07:44:29.970Z,39.38
2022-10-25T07:45:31.217Z,39.38
2022-10-25T07:46:29.962Z,45.00
2022-10-25T07:47:29.920Z,45.00
2022-10-25T07:48:29.902Z,33.75
2022-10-25T07:49:29.890Z,16.88
2022-10-25T07:50:29.902Z,16.88
2022-10-25T07:51:29.888Z,16.88
2022-10-25T07:52:29.883Z,16.88
2022-10-25T07:53:29.858Z,28.12
2022-10-25T07:54:29.913Z,11.25
2022-10-25T07:55:29.836Z,45.00
2022-10-25T07:56:29.838Z,45.00
2022-10-25T07:57:29.807Z,28.12
2022-10-25T07:58:29.812Z,5.62
2022-10-25T07:59:29.803Z,5.62
2022-10-25T08:00:29.769Z,5.62
2022-10-25T08:01:29.805Z,5.62
2022-10-25T08:02:29.756Z,16.88
2022-10-25T08:03:29.790Z,11.25
2022-10-25T08:05:29.721Z,11.25
2022-10-25T08:06:29.712Z,11.25
2022-10-25T08:07:29.717Z,5.62
2022-10-25T08:08:29.689Z,5.62
2022-10-25T08:09:39.306Z,5.62
2022-10-25T08:10:30.673Z,5.62
2022-10-25T08:11:29.647Z,5.62
2022-10-25T08:12:29.641Z,5.62
2022-10-25T08:13:29.648Z,5.62
2022-10-25T08:14:29.650Z,11.25
2022-10-25T08:15:29.628Z,11.25
2022-10-25T08:16:29.604Z,11.25
2022-10-25T08:17:29.625Z,11.25
2022-10-25T08:18:29.583Z,11.25
2022-10-25T08:19:29.558Z,11.25
2022-10-25T08:20:49.675Z,5.62
2022-10-25T08:21:30.554Z,5.62
2022-10-25T08:22:29.551Z,5.62
2022-10-25T08:23:29.551Z,5.62
2022-10-25T08:24:29.512Z,5.62
2022-10-25T08:25:29.500Z,5.62
2022-10-25T08:26:34.405Z,5.62
2022-10-25T08:27:30.469Z,5.62
2022-10-25T08:28:29.505Z,5.62
2022-10-25T08:29:29.460Z,11.25
2022-10-25T08:30:29.474Z,11.25
2022-10-25T08:31:29.452Z,5.62
2022-10-25T08:32:29.423Z,5.62
2022-10-25T08:33:29.432Z,5.62
2022-10-25T08:34:32.346Z,5.62
2022-10-25T08:35:29.383Z,5.62
2022-10-25T08:36:29.372Z,5.62
2022-10-25T08:37:29.370Z,5.62
2022-10-25T08:38:29.391Z,11.25
2022-10-25T08:39:29.352Z,11.25
2022-10-25T08:40:29.341Z,11.25
2022-10-25T08:41:29.371Z,11.25
2022-10-25T08:42:29.308Z,5.62
2022-10-25T08:43:29.301Z,5.62
2022-10-25T08:44:29.290Z,11.25
2022-10-25T08:45:29.277Z,11.25
2022-10-25T08:46:29.299Z,11.25
2022-10-25T08:47:29.281Z,11.25
2022-10-25T08:48:29.246Z,11.25
2022-10-25T08:49:29.235Z,11.25
2022-10-25T08:50:29.232Z,11.25
2022-10-25T08:51:29.210Z,11.25
2022-10-25T08:52:29.209Z,11.25
2022-10-25T08:53:29.190Z,11.25
2022-10-25T08:54:29.187Z,16.88
2022-10-25T08:55:29.183Z,16.88
2022-10-25T08:56:29.157Z,16.88
2022-10-25T08:57:29.142Z,16.88
2022-10-25T08:58:29.141Z,16.88
2022-10-25T08:59:29.136Z,16.88
2022-10-25T09:00:29.111Z,16.88
2022-10-25T09:01:29.219Z,16.88
2022-10-25T09:02:29.251Z,16.88
2022-10-25T09:03:29.102Z,16.88
2022-10-25T09:04:29.071Z,16.88
2022-10-25T09:05:29.066Z,11.25
2022-10-25T09:06:29.056Z,16.88
2022-10-25T09:07:29.043Z,11.25
2022-10-25T09:08:29.022Z,11.25
2022-10-25T09:09:29.009Z,16.88
2022-10-25T09:10:29.028Z,16.88
2022-10-25T09:11:29.008Z,16.88
2022-10-25T09:12:28.977Z,11.25
2022-10-25T09:13:29.018Z,11.25
2022-10-25T09:14:28.973Z,11.25
2022-10-25T09:15:28.941Z,11.25
2022-10-25T09:16:28.932Z,11.25
2022-10-25T09:17:28.933Z,11.25
2022-10-25T09:18:28.924Z,11.25
2022-10-25T09:19:28.896Z,11.25
2022-10-25T09:20:28.929Z,11.25
2022-10-25T09:21:28.875Z,11.25
2022-10-25T09:22:28.890Z,11.25
2022-10-25T09:23:28.890Z,11.25
2022-10-25T09:24:28.840Z,11.25
2022-10-25T09:25:28.837Z,11.25
2022-10-25T09:26:28.846Z,16.88
2022-10-25T09:27:28.820Z,11.25
2022-10-25T09:28:28.808Z,11.25
2022-10-25T09:29:28.819Z,11.25
2022-10-25T09:30:28.788Z,11.25
2022-10-25T09:31:28.781Z,11.25
2022-10-25T09:32:28.757Z,11.25
2022-10-25T09:33:28.784Z,11.25
2022-10-25T09:34:28.760Z,11.25
2022-10-25T09:35:28.732Z,11.25
2022-10-25T09:36:28.723Z,11.25
2022-10-25T09:37:28.708Z,11.25
2022-10-25T09:38:28.693Z,11.25
2022-10-25T09:39:28.705Z,11.25
2022-10-25T09:40:28.678Z,5.62
2022-10-25T09:41:28.685Z,5.62
2022-10-25T09:42:28.651Z,5.62
2022-10-25T09:43:28.638Z,5.62
2022-10-25T09:44:28.658Z,5.62
2022-10-25T09:45:28.650Z,5.62
2022-10-25T09:46:28.608Z,5.62
2022-10-25T09:47:28.607Z,5.62
2022-10-25T09:48:28.620Z,5.62
2022-10-25T09:49:28.575Z,5.62
2022-10-25T09:50:28.602Z,5.62
2022-10-25T09:51:28.553Z,5.62
2022-10-25T09:52:28.557Z,5.62
2022-10-25T09:53:28.543Z,5.62
2022-10-25T09:54:28.552Z,5.62
2022-10-25T09:55:28.509Z,5.62
2022-10-25T09:56:28.502Z,0.00
2022-10-25T09:57:28.506Z,0.00
2022-10-25T09:58:28.490Z,0.00
2022-10-25T09:59:28.481Z,0.00
2022-10-25T10:00:28.458Z,0.00
2022-10-25T10:01:28.709Z,0.00
2022-10-25T10:02:28.602Z,5.62
2022-10-25T10:03:28.436Z,5.62
2022-10-25T10:04:28.412Z,5.62
2022-10-25T10:05:28.409Z,5.62
2022-10-25T10:06:28.406Z,5.62
2022-10-25T10:07:28.381Z,5.62
2022-10-25T10:08:28.390Z,5.62
2022-10-25T10:09:28.382Z,5.62
2022-10-25T10:10:28.352Z,5.62
2022-10-25T10:11:28.346Z,5.62
2022-10-25T10:12:28.323Z,5.62
2022-10-25T10:13:28.316Z,5.62
2022-10-25T10:14:28.331Z,5.62
2022-10-25T10:15:28.292Z,5.62
2022-10-25T10:16:28.283Z,5.62
2022-10-25T10:17:28.285Z,5.62
2022-10-25T10:18:28.256Z,5.62
2022-10-25T10:19:28.266Z,5.62
2022-10-25T10:20:28.237Z,5.62
2022-10-25T10:21:28.235Z,5.62
2022-10-25T10:22:28.253Z,11.25
2022-10-25T10:23:28.235Z,11.25
2022-10-25T10:24:28.246Z,11.25
2022-10-25T10:25:28.182Z,11.25
2022-10-25T10:26:28.189Z,11.25
2022-10-25T10:27:28.162Z,11.25
2022-10-25T10:28:28.156Z,11.25
2022-10-25T10:29:28.147Z,11.25
2022-10-25T10:30:28.153Z,11.25
2022-10-25T10:31:28.120Z,11.25
2022-10-25T10:32:28.148Z,11.25
2022-10-25T10:33:28.096Z,16.88
2022-10-25T10:34:28.126Z,16.88
2022-10-25T10:35:28.076Z,16.88
2022-10-25T10:36:28.069Z,11.25
2022-10-25T10:37:28.056Z,11.25
2022-10-25T10:38:28.072Z,11.25
2022-10-25T10:39:28.027Z,11.25
2022-10-25T10:40:28.052Z,11.25
2022-10-25T10:41:28.028Z,11.25
2022-10-25T10:42:28.060Z,11.25
2022-10-25T10:43:27.986Z,5.62
2022-10-25T10:44:27.987Z,5.62
2022-10-25T10:45:28.000Z,5.62
2022-10-25T10:46:27.974Z,5.62
2022-10-25T10:47:27.938Z,5.62
2022-10-25T10:48:27.937Z,5.62
2022-10-25T10:49:27.925Z,5.62
2022-10-25T10:50:27.910Z,5.62
2022-10-25T10:51:44.717Z,5.62
2022-10-25T10:52:28.902Z,5.62
2022-10-25T10:53:27.876Z,5.62
2022-10-25T10:54:27.902Z,5.62
2022-10-25T10:55:27.857Z,5.62
2022-10-25T10:56:27.865Z,5.62
2022-10-25T10:57:27.842Z,5.62
2022-10-25T10:58:27.841Z,5.62
2022-10-25T10:59:27.819Z,5.62
2022-10-25T11:00:27.803Z,5.62
2022-10-25T11:01:27.971Z,5.62
2022-10-25T11:02:28.198Z,5.62
2022-10-25T11:03:27.789Z,5.62
2022-10-25T11:04:27.780Z,5.62
2022-10-25T11:05:27.747Z,11.25
2022-10-25T11:06:27.735Z,11.25
2022-10-25T11:07:27.758Z,11.25
2022-10-25T11:08:27.717Z,11.25
2022-10-25T11:09:27.724Z,11.25
2022-10-25T11:10:27.724Z,11.25
2022-10-25T11:11:27.688Z,11.25
2022-10-25T11:12:27.686Z,11.25
2022-10-25T11:13:27.658Z,11.25
2022-10-25T11:14:27.669Z,11.25
2022-10-25T11:15:27.639Z,11.25
2022-10-25T11:16:28.147Z,5.62
2022-10-25T11:17:27.627Z,5.62
2022-10-25T11:18:27.629Z,5.62
2022-10-25T11:19:27.640Z,11.25
2022-10-25T11:20:27.587Z,11.25
2022-10-25T11:21:27.574Z,11.25
2022-10-25T11:22:32.065Z,11.25
2022-10-25T11:23:28.570Z,11.25
2022-10-25T11:24:27.549Z,11.25
2022-10-25T11:25:27.547Z,11.25
2022-10-25T11:26:27.626Z,11.25
2022-10-25T11:27:28.569Z,16.88
2022-10-25T11:28:27.498Z,16.88
2022-10-25T11:29:27.496Z,16.88
2022-10-25T11:30:27.495Z,16.88
2022-10-25T11:31:27.466Z,11.25
2022-10-25T11:32:27.522Z,11.25
2022-10-25T11:33:27.441Z,11.25
2022-10-25T11:34:27.428Z,11.25
2022-10-25T11:35:27.437Z,11.25
2022-10-25T11:36:27.427Z,11.25
2022-10-25T11:37:27.412Z,11.25
2022-10-25T11:38:27.377Z,11.25
2022-10-25T11:39:27.372Z,11.25
2022-10-25T11:40:27.363Z,11.25
2022-10-25T11:41:27.376Z,11.25
2022-10-25T11:42:27.488Z,11.25
2022-10-25T11:43:27.324Z,11.25
2022-10-25T11:44:27.317Z,11.25
2022-10-25T11:45:27.304Z,5.62
2022-10-25T11:46:27.310Z,5.62
2022-10-25T11:47:27.294Z,5.62
2022-10-25T11:48:27.271Z,5.62
2022-10-25T11:49:27.261Z,11.25
2022-10-25T11:50:27.265Z,11.25
2022-10-25T11:51:27.262Z,11.25
2022-10-25T11:52:27.226Z,11.25
2022-10-25T11:53:27.231Z,11.25
2022-10-25T11:54:27.236Z,5.62
2022-10-25T11:55:27.201Z,5.62
2022-10-25T11:56:27.183Z,5.62
2022-10-25T11:57:27.169Z,5.62
2022-10-25T11:58:27.294Z,5.62
2022-10-25T11:59:27.166Z,5.62
2022-10-25T12:01:27.193Z,5.62
2022-10-25T12:02:27.150Z,5.62
2022-10-25T12:03:27.125Z,5.62
2022-10-25T12:04:29.513Z,5.62
2022-10-25T12:05:27.094Z,5.62
2022-10-25T12:06:27.086Z,5.62
2022-10-25T12:07:27.059Z,5.62
2022-10-25T12:08:27.047Z,5.62
2022-10-25T12:09:27.055Z,11.25
2022-10-25T12:10:27.020Z,16.88
2022-10-25T12:11:27.026Z,11.25
2022-10-25T12:12:27.004Z,11.25
2022-10-25T12:13:26.996Z,11.25
2022-10-25T12:14:27.118Z,11.25
2022-10-25T12:15:26.974Z,11.25
2022-10-25T12:16:26.965Z,11.25
2022-10-25T12:17:26.972Z,11.25
2022-10-25T12:18:26.952Z,11.25
2022-10-25T12:19:26.948Z,11.25
2022-10-25T12:20:26.958Z,11.25
2022-10-25T12:21:26.895Z,11.25
2022-10-25T12:22:26.890Z,11.25
2022-10-25T12:23:26.888Z,16.88
2022-10-25T12:24:26.864Z,16.88
2022-10-25T12:25:26.928Z,16.88
2022-10-25T12:26:26.874Z,16.88
2022-10-25T12:27:26.829Z,16.88
2022-10-25T12:28:26.821Z,16.88
2022-10-25T12:29:26.851Z,16.88
2022-10-25T12:31:26.804Z,16.88
2022-10-25T12:32:26.791Z,11.25
2022-10-25T12:33:26.768Z,11.25
2022-10-25T12:34:26.752Z,11.25
2022-10-25T12:35:26.748Z,11.25
2022-10-25T12:36:26.751Z,11.25
2022-10-25T12:37:26.739Z,11.25
2022-10-25T12:38:26.707Z,11.25
2022-10-25T12:39:26.694Z,11.25
2022-10-25T12:40:26.691Z,11.25
2022-10-25T12:41:26.697Z,11.25
2022-10-25T12:42:26.667Z,11.25
2022-10-25T12:43:26.663Z,16.88
2022-10-25T12:44:26.641Z,16.88
2022-10-25T12:45:26.628Z,11.25
2022-10-25T12:46:26.750Z,11.25
2022-10-25T12:47:26.623Z,11.25
2022-10-25T12:48:26.603Z,11.25
2022-10-25T12:49:26.606Z,11.25
2022-10-25T12:50:26.570Z,11.25
2022-10-25T12:51:26.560Z,11.25
2022-10-25T12:52:26.585Z,11.25
2022-10-25T12:53:26.567Z,11.25
2022-10-25T12:54:26.557Z,11.25
2022-10-25T12:55:26.561Z,11.25
2022-10-25T12:56:26.503Z,11.25
2022-10-25T12:57:26.504Z,11.25
2022-10-25T12:58:26.490Z,11.25
2022-10-25T12:59:26.497Z,16.88
2022-10-25T13:00:26.464Z,11.25
2022-10-25T13:01:26.520Z,11.25
2022-10-25T13:02:26.552Z,11.25
2022-10-25T13:03:26.431Z,11.25
2022-10-25T13:04:26.428Z,16.88
2022-10-25T13:05:26.407Z,11.25
2022-10-25T13:06:26.407Z,11.25
2022-10-25T13:07:26.402Z,11.25
2022-10-25T13:08:26.372Z,11.25
2022-10-25T13:09:27.361Z,11.25
2022-10-25T13:11:26.344Z,11.25
2022-10-25T13:12:26.331Z,11.25
2022-10-25T13:13:26.344Z,11.25
2022-10-25T13:14:26.333Z,11.25
2022-10-25T13:15:26.337Z,11.25
2022-10-25T13:16:26.313Z,11.25
2022-10-25T13:17:26.305Z,11.25
2022-10-25T13:18:26.382Z,11.25
2022-10-25T13:19:42.782Z,11.25
2022-10-25T13:20:27.256Z,11.25
2022-10-25T13:21:26.231Z,11.25
2022-10-25T13:22:26.257Z,11.25
2022-10-25T13:23:26.212Z,5.62
2022-10-25T13:24:26.204Z,5.62
2022-10-25T13:25:26.225Z,11.25
2022-10-25T13:26:26.182Z,11.25
2022-10-25T13:27:26.170Z,11.25
2022-10-25T13:28:26.189Z,11.25
2022-10-25T13:29:26.173Z,11.25
2022-10-25T13:30:26.147Z,11.25
2022-10-25T13:31:26.135Z,11.25
2022-10-25T13:32:26.129Z,11.25
2022-10-25T13:33:26.154Z,11.25
2022-10-25T13:34:26.205Z,5.62
2022-10-25T13:35:26.075Z,11.25
2022-10-25T13:36:26.080Z,11.25
2022-10-25T13:37:26.073Z,5.62
2022-10-25T13:38:26.072Z,5.62
2022-10-25T13:39:26.067Z,5.62
2022-10-25T13:40:26.022Z,11.25
2022-10-25T13:41:26.019Z,11.25
2022-10-25T13:42:26.006Z,11.25
2022-10-25T13:43:26.008Z,5.62
2022-10-25T13:44:25.998Z,5.62
2022-10-25T13:45:27.971Z,5.62
2022-10-25T13:46:25.975Z,11.25
2022-10-25T13:47:25.959Z,11.25
2022-10-25T13:48:25.936Z,11.25
2022-10-25T13:49:25.969Z,11.25
2022-10-25T13:50:26.030Z,11.25
2022-10-25T13:51:25.925Z,11.25
2022-10-25T13:52:25.921Z,11.25
2022-10-25T13:53:25.913Z,11.25
2022-10-25T13:54:25.874Z,11.25
2022-10-25T13:55:25.873Z,11.25
2022-10-25T13:56:25.851Z,11.25
2022-10-25T13:57:25.858Z,11.25
2022-10-25T13:58:28.230Z,11.25
2022-10-25T13:59:25.836Z,11.25
2022-10-25T14:00:25.877Z,11.25
2022-10-25T14:01:25.881Z,11.25
2022-10-25T14:02:25.856Z,5.62
2022-10-25T14:03:25.767Z,5.62
2022-10-25T14:04:25.763Z,5.62
2022-10-25T14:05:25.781Z,5.62
2022-10-25T14:06:25.759Z,5.62
2022-10-25T14:07:25.751Z,5.62
2022-10-25T14:08:25.716Z,5.62
2022-10-25T14:09:25.718Z,5.62
2022-10-25T14:10:25.699Z,5.62
2022-10-25T14:11:25.713Z,5.62
2022-10-25T14:12:25.676Z,5.62
2022-10-25T14:13:25.664Z,5.62
2022-10-25T14:14:25.657Z,5.62
2022-10-25T14:15:25.656Z,5.62
2022-10-25T14:16:25.661Z,5.62
2022-10-25T14:17:25.625Z,5.62
2022-10-25T14:18:25.621Z,5.62
2022-10-25T14:19:25.601Z,5.62
2022-10-25T14:20:25.601Z,5.62
2022-10-25T14:21:25.579Z,5.62
2022-10-25T14:22:27.873Z,5.62
2022-10-25T14:23:25.557Z,5.62
2022-10-25T14:24:25.552Z,5.62
2022-10-25T14:25:25.549Z,5.62
2022-10-25T14:26:25.535Z,5.62
2022-10-25T14:27:25.531Z,5.62
2022-10-25T14:28:25.521Z,0.00
2022-10-25T14:29:25.509Z,0.00
2022-10-25T14:30:25.479Z,0.00
2022-10-25T14:31:25.491Z,0.00
2022-10-25T14:32:25.469Z,0.00
2022-10-25T14:33:25.496Z,0.00
2022-10-25T14:34:25.448Z,0.00
2022-10-25T14:35:25.430Z,0.00
2022-10-25T14:36:25.422Z,0.00
2022-10-25T14:37:25.422Z,0.00
2022-10-25T14:38:25.450Z,0.00
2022-10-25T14:39:25.388Z,0.00
2022-10-25T14:40:25.376Z,0.00
2022-10-25T14:41:25.359Z,0.00
2022-10-25T14:42:25.369Z,0.00
2022-10-25T14:43:25.374Z,0.00
2022-10-25T14:44:25.393Z,0.00
2022-10-25T14:45:25.323Z,0.00
2022-10-25T14:46:25.323Z,0.00
2022-10-25T14:47:25.307Z,0.00
2022-10-25T14:48:25.310Z,0.00
2022-10-25T14:49:25.292Z,0.00
2022-10-25T14:50:25.263Z,0.00
2022-10-25T14:51:25.249Z,0.00
2022-10-25T14:52:25.244Z,0.00
2022-10-25T14:53:25.230Z,0.00
2022-10-25T14:54:25.275Z,0.00
2022-10-25T14:55:25.212Z,0.00
2022-10-25T14:56:25.202Z,0.00
2022-10-25T14:57:25.207Z,0.00
2022-10-25T14:58:25.169Z,0.00
2022-10-25T14:59:25.163Z,0.00
2022-10-25T15:00:25.210Z,0.00
2022-10-25T15:01:25.250Z,0.00
2022-10-25T15:02:25.130Z,0.00
2022-10-25T15:03:25.119Z,0.00
2022-10-25T15:04:25.146Z,0.00
2022-10-25T15:05:25.099Z,0.00
2022-10-25T15:06:25.092Z,0.00
2022-10-25T15:07:25.072Z,0.00
2022-10-25T15:08:25.073Z,0.00
2022-10-25T15:10:26.087Z,0.00
2022-10-25T15:11:25.030Z,0.00
2022-10-25T15:12:25.014Z,0.00
2022-10-25T15:13:25.006Z,0.00
2022-10-25T15:14:25.001Z,0.00
2022-10-25T15:15:24.987Z,0.00
2022-10-25T15:16:25.002Z,0.00
2022-10-25T15:17:24.976Z,0.00
2022-10-25T15:18:24.947Z,0.00
2022-10-25T15:19:24.939Z,0.00
2022-10-25T15:20:24.959Z,0.00
2022-10-25T15:21:24.947Z,0.00
2022-10-25T15:22:24.903Z,0.00
2022-10-25T15:23:24.912Z,0.00
2022-10-25T15:24:24.893Z,0.00
2022-10-25T15:25:24.879Z,0.00
2022-10-25T15:26:24.882Z,0.00
2022-10-25T15:27:24.884Z,0.00
2022-10-25T15:28:24.840Z,0.00
2022-10-25T15:29:24.826Z,0.00
2022-10-25T15:30:24.817Z,0.00
2022-10-25T15:31:24.929Z,0.00
2022-10-25T15:32:24.799Z,0.00
2022-10-25T15:33:24.807Z,0.00
2022-10-25T15:34:24.801Z,0.00
2022-10-25T15:35:24.765Z,0.00
2022-10-25T15:36:24.784Z,0.00
2022-10-25T15:37:24.745Z,0.00
2022-10-25T15:38:29.500Z,0.00
2022-10-25T15:39:25.734Z,0.00
2022-10-25T15:40:24.713Z,0.00
2022-10-25T15:41:24.726Z,0.00
2022-10-25T15:42:24.727Z,0.00
2022-10-25T15:43:24.698Z,0.00
2022-10-25T15:44:24.694Z,0.00
2022-10-25T15:45:24.692Z,0.00
2022-10-25T15:46:24.647Z,0.00
2022-10-25T15:47:24.634Z,0.00
2022-10-25T15:48:24.639Z,0.00
2022-10-25T15:49:24.649Z,0.00
2022-10-25T15:50:24.607Z,0.00
2022-10-25T15:51:27.462Z,0.00
2022-10-25T15:52:25.585Z,0.00
2022-10-25T15:53:24.584Z,0.00
2022-10-25T15:54:24.563Z,0.00
2022-10-25T15:55:24.552Z,0.00
2022-10-25T15:56:24.530Z,0.00
2022-10-25T15:57:24.555Z,0.00
2022-10-25T15:58:24.544Z,0.00
2022-10-25T15:59:24.558Z,0.00
2022-10-25T16:00:27.894Z,0.00
2022-10-25T16:01:24.612Z,0.00
2022-10-25T16:02:24.476Z,0.00
2022-10-25T16:03:24.468Z,0.00
2022-10-25T16:04:24.443Z,0.00
2022-10-25T16:05:24.463Z,0.00
2022-10-25T16:06:24.433Z,0.00
2022-10-25T16:07:24.409Z,0.00
2022-10-25T16:08:24.439Z,0.00
2022-10-25T16:09:24.391Z,0.00
2022-10-25T16:10:24.399Z,0.00
2022-10-25T16:11:24.375Z,0.00
2022-10-25T16:12:24.407Z,0.00
2022-10-25T16:13:24.391Z,0.00
2022-10-25T16:14:24.366Z,0.00
2022-10-25T16:15:24.342Z,0.00
2022-10-25T16:16:40.838Z,0.00
2022-10-25T16:17:25.299Z,0.00
2022-10-25T16:19:24.274Z,0.00
2022-10-25T16:20:24.277Z,0.00
2022-10-25T16:21:24.287Z,0.00
2022-10-25T16:22:24.264Z,0.00
2022-10-25T16:23:24.259Z,0.00
2022-10-25T16:24:24.234Z,0.00
2022-10-25T16:25:27.923Z,0.00
2022-10-25T16:26:25.216Z,0.00
2022-10-25T16:27:24.199Z,0.00
2022-10-25T16:29:24.250Z,0.00
2022-10-25T16:30:24.201Z,0.00
2022-10-25T16:31:24.145Z,0.00
2022-10-25T16:32:24.144Z,0.00
2022-10-25T16:33:24.123Z,0.00
2022-10-25T16:34:24.122Z,0.00
2022-10-25T16:35:24.158Z,0.00
2022-10-25T16:36:24.115Z,0.00
2022-10-25T16:37:24.082Z,0.00
2022-10-25T16:38:24.083Z,0.00
2022-10-25T16:39:24.066Z,0.00
2022-10-25T16:40:24.054Z,0.00
2022-10-25T16:41:24.081Z,0.00
2022-10-25T16:42:24.026Z,0.00
2022-10-25T16:43:24.010Z,0.00
2022-10-25T16:44:24.009Z,0.00
2022-10-25T16:45:23.992Z,0.00
2022-10-25T16:46:24.002Z,0.00
2022-10-25T16:47:24.007Z,0.00
2022-10-25T16:48:23.961Z,0.00
2022-10-25T16:49:23.954Z,0.00
2022-10-25T16:50:23.935Z,0.00
2022-10-25T16:51:23.932Z,0.00
2022-10-25T16:52:23.920Z,0.00
2022-10-25T16:53:23.947Z,0.00
2022-10-25T16:54:24.351Z,0.00
2022-10-25T16:55:23.883Z,0.00
2022-10-25T16:56:23.898Z,0.00
2022-10-25T16:57:23.864Z,0.00
2022-10-25T16:58:23.850Z,0.00
2022-10-25T16:59:23.849Z,0.00
2022-10-25T17:00:23.840Z,0.00
2022-10-25T17:01:24.032Z,0.00
2022-10-25T17:02:23.904Z,0.00
2022-10-25T17:03:23.793Z,0.00
2022-10-25T17:04:23.790Z,0.00
2022-10-25T17:05:23.773Z,0.00
2022-10-25T17:07:24.759Z,0.00
2022-10-25T17:08:23.796Z,0.00
2022-10-25T17:09:23.735Z,0.00
2022-10-25T17:10:23.747Z,0.00
2022-10-25T17:11:23.748Z,0.00
2022-10-25T17:12:23.700Z,0.00
2022-10-25T17:13:23.704Z,0.00
2022-10-25T17:14:23.690Z,0.00
2022-10-25T17:15:23.667Z,0.00
2022-10-25T17:16:23.683Z,0.00
2022-10-25T17:18:23.656Z,0.00
2022-10-25T17:19:23.635Z,0.00
2022-10-25T17:20:23.615Z,0.00
2022-10-25T17:21:23.633Z,0.00
2022-10-25T17:22:23.660Z,0.00
2022-10-25T17:23:23.583Z,0.00
2022-10-25T17:24:23.588Z,0.00
2022-10-25T17:25:23.569Z,0.00
2022-10-25T17:26:23.550Z,0.00
2022-10-25T17:27:23.542Z,0.00
2022-10-25T17:28:23.570Z,0.00
2022-10-25T17:29:23.516Z,0.00
2022-10-25T17:30:23.500Z,0.00
2022-10-25T17:31:23.507Z,0.00
2022-10-25T17:32:23.506Z,0.00
2022-10-25T17:33:23.481Z,0.00
2022-10-25T17:34:23.477Z,0.00
2022-10-25T17:35:25.662Z,0.00
2022-10-25T17:36:24.460Z,0.00
2022-10-25T17:37:23.432Z,0.00
2022-10-25T17:38:23.419Z,0.00
2022-10-25T17:39:23.425Z,0.00
2022-10-25T17:40:23.389Z,0.00
2022-10-25T17:41:23.423Z,0.00
2022-10-25T17:42:23.371Z,0.00
2022-10-25T17:43:23.370Z,0.00
2022-10-25T17:44:23.354Z,0.00
2022-10-25T17:45:23.359Z,0.00
2022-10-25T17:46:23.336Z,0.00
2022-10-25T17:47:23.387Z,0.00
2022-10-25T17:48:23.326Z,0.00
2022-10-25T17:49:23.316Z,0.00
2022-10-25T17:50:23.337Z,0.00